Cincinnati, OH

3:50 PM EDT on March 26, 2015 (GMT -0400)
Newport Aquarium | Change Station
CLOSE
Current Station
Personal Weather Station
Location: Newport, KY
Elevation: 499 ft
Nearby Weather Stations

Elev 499 ft 39.09 °N, 84.50 °W | Updated 6 minutes ago

Rain
Rain
48.8 °F
Feels Like 49 °F
N
1.0
Wind Variable Wind from SW
Gusts 1.0 mph

Today
High -- | Low -- °F
--% Chance of Precip.
Yesterday
High -- | Low -- °F
Precip. -- in
7:32 AM 7:55 PM
Waxing Crescent, 45% visible
Pressure 29.89 in
Visibility 9.0 miles
Clouds Mostly Cloudy 2500 ft
Overcast 4800 ft
Windchill 49 °F
Dew Point 43 °F
Humidity 80%
Rainfall 0.56 in
Snow Depth Not available.
UV 2 out of 12
Pollen .70 out of 12
Air Quality Not available.
Flu Activity Not available.
METAR KLUK 261853Z 31006KT 9SM -RA BKN025 OVC048 08/06 A2988 RMK AO2 RAE1754B40 SLP120 P0000 T00830061

More Conditions Fewer Conditions

Pressure 29.89 in
Visibility 9.0 miles
Clouds Mostly Cloudy 2500 ft
Overcast 4800 ft
Windchill 49 °F
Dew Point 43 °F
Humidity 80%
Rainfall 0.56 in
Snow Depth Not available.
UV 2 out of 12
Pollen .70 out of 12
Air Quality Not available.
Flu Activity Not available.
METAR KLUK 261853Z 31006KT 9SM -RA BKN025 OVC048 08/06 A2988 RMK AO2 RAE1754B40 SLP120 P0000 T00830061

More Conditions Fewer Conditions

10-Day Weather Forecast

Almanac

Astronomy

Mar. 26, 2015 Rise Set
Actual Time
Civil Twilight
Nautical Twilight
Astronomical Twilight
Moon
Length of Visible Light
Length of Day
Tomorrow will be .
, % of the Moon is Illuminated

Today's Extremes

State Highs State Lows

Community

WunderPhotos

Upload Photos

1,808,607 photos uploaded!

WunderBlogs® & News

Nearby

Air Quality

  Air Quality AQ Index Pollutant
Not available.

Snow Depth

Station Depth Elevation

Earthquake Activity

City Distance Mag. Time & Date
Minimum magnitude displayed is 2.5.

Coastal Water Temperatures

Place Temperature

Stations

Nearby Weather Stations

Station Location Temp. Windchill Dew Point Humidity Wind Precip. Elev Updated Type